Time;durP1;ratioP1;P1;durP2;ratioP2;P2;SDS_P1;SDS_P2;PMS_P1;PMS_P2;Temp;Humidity;BMP_temperature;BMP_pressure;BME280_temperature;BME280_humidity;BME280_pressure;Samples;Min_cycle;Max_cycle;Signal;HPM_P1;HPM_P2
2021/10/25 00:00:48;;;;;;;6.15;2.58;;;;;;;;;;5063166;28;20512;-64
2021/10/25 00:03:14;;;;;;;8.52;2.83;;;;;;;;;;5063670;28;20475;-64
2021/10/25 00:05:40;;;;;;;3.75;2.45;;;;;;;;;;5063177;28;20028;-64
2021/10/25 00:08:06;;;;;;;2.65;2.45;;;;;;;;;;5063178;28;20380;-66
2021/10/25 00:10:34;;;;;;;5.65;2.72;;;;;;;;;;5062677;28;20025;-65
2021/10/25 00:13:00;;;;;;;7.07;2.50;;;;;;;;;;5047266;28;20099;-65
2021/10/25 00:15:26;;;;;;;7.53;2.40;;;;;;;;;;5063739;28;20040;-66
2021/10/25 00:17:52;;;;;;;3.15;2.35;;;;;;;;;;5066772;28;20784;-64
2021/10/25 00:20:18;;;;;;;4.72;2.85;;;;;;;;;;5065128;28;20040;-66
2021/10/25 00:22:44;;;;;;;3.80;2.33;;;;;;;;;;5067027;28;20468;-65
2021/10/25 00:25:10;;;;;;;8.20;2.60;;;;;;;;;;5065429;28;20020;-67
2021/10/25 00:27:36;;;;;;;4.15;2.35;;;;;;;;;;5048663;28;20067;-64
2021/10/25 00:30:04;;;;;;;6.32;2.65;;;;;;;;;;5047644;28;20396;-64
2021/10/25 00:32:32;;;;;;;6.90;2.63;;;;;;;;;;5063417;28;20017;-64
2021/10/25 00:34:58;;;;;;;6.60;2.50;;;;;;;;;;5043945;28;20025;-64
2021/10/25 00:37:24;;;;;;;5.05;2.42;;;;;;;;;;5062016;28;20036;-63
2021/10/25 00:39:50;;;;;;;5.35;2.80;;;;;;;;;;5060568;28;20029;-65
2021/10/25 00:42:16;;;;;;;3.72;2.30;;;;;;;;;;5065592;28;20025;-64
2021/10/25 00:44:42;;;;;;;4.28;2.85;;;;;;;;;;5062242;28;20116;-64
2021/10/25 00:47:08;;;;;;;7.30;2.72;;;;;;;;;;5061657;28;20451;-63
2021/10/25 00:49:35;;;;;;;15.15;2.65;;;;;;;;;;5059133;28;20487;-63
2021/10/25 00:52:01;;;;;;;4.97;2.38;;;;;;;;;;5041209;28;20029;-65
2021/10/25 00:54:27;;;;;;;3.83;2.50;;;;;;;;;;5058913;28;20054;-64
2021/10/25 00:56:53;;;;;;;4.35;2.35;;;;;;;;;;5046454;28;20028;-64
2021/10/25 00:59:19;;;;;;;5.90;2.30;;;;;;;;;;5061459;28;20456;-66
2021/10/25 01:01:46;;;;;;;5.15;2.28;;;;;;;;;;5064472;28;20017;-65
2021/10/25 01:04:12;;;;;;;7.00;2.58;;;;;;;;;;5064086;28;20048;-64
2021/10/25 01:06:39;;;;;;;5.50;2.55;;;;;;;;;;5044396;28;20029;-65
2021/10/25 01:09:06;;;;;;;7.30;2.58;;;;;;;;;;5061649;28;20035;-64
2021/10/25 01:11:32;;;;;;;3.58;2.50;;;;;;;;;;5063379;28;20109;-64
2021/10/25 01:13:58;;;;;;;4.88;2.80;;;;;;;;;;5042188;28;20423;-64
2021/10/25 01:16:26;;;;;;;3.00;2.17;;;;;;;;;;5064048;28;20028;-64
2021/10/25 01:18:54;;;;;;;10.65;2.90;;;;;;;;;;5059699;28;20017;-64
2021/10/25 01:21:20;;;;;;;4.03;2.28;;;;;;;;;;5062658;28;20579;-64
2021/10/25 01:23:46;;;;;;;4.93;2.45;;;;;;;;;;5063790;28;20107;-64
2021/10/25 01:26:13;;;;;;;7.15;2.65;;;;;;;;;;5061861;28;20048;-64
2021/10/25 01:28:40;;;;;;;4.70;2.55;;;;;;;;;;5062143;28;20076;-64
2021/10/25 01:31:06;;;;;;;2.65;2.40;;;;;;;;;;5064447;28;20112;-64
2021/10/25 01:33:34;;;;;;;3.08;2.20;;;;;;;;;;5043640;28;20035;-64
2021/10/25 01:36:00;;;;;;;3.70;2.50;;;;;;;;;;5062934;28;20021;-63
2021/10/25 01:38:26;;;;;;;7.25;2.40;;;;;;;;;;5061631;28;20032;-64
2021/10/25 01:40:52;;;;;;;2.80;2.20;;;;;;;;;;5053497;28;20631;-64
2021/10/25 01:43:18;;;;;;;3.13;2.45;;;;;;;;;;5062667;28;20024;-64
2021/10/25 01:45:47;;;;;;;4.05;2.22;;;;;;;;;;5048017;28;20033;-64
2021/10/25 01:48:13;;;;;;;3.50;2.40;;;;;;;;;;5058735;28;20139;-66
2021/10/25 01:50:40;;;;;;;2.38;2.13;;;;;;;;;;5062447;28;20029;-64
2021/10/25 01:53:06;;;;;;;3.92;2.60;;;;;;;;;;5063212;28;20021;-64
2021/10/25 01:55:32;;;;;;;3.72;2.45;;;;;;;;;;5061256;28;20044;-64
2021/10/25 01:57:58;;;;;;;2.83;2.30;;;;;;;;;;5061362;28;20151;-64
2021/10/25 02:00:24;;;;;;;2.63;2.28;;;;;;;;;;5063962;28;20103;-64
2021/10/25 02:02:51;;;;;;;3.67;2.20;;;;;;;;;;5061068;28;20017;-64
2021/10/25 02:05:17;;;;;;;2.88;2.30;;;;;;;;;;5061012;28;20110;-64
2021/10/25 02:07:43;;;;;;;3.03;2.35;;;;;;;;;;5063898;28;20036;-64
2021/10/25 02:10:09;;;;;;;4.10;2.65;;;;;;;;;;5060608;28;20033;-65
2021/10/25 02:12:36;;;;;;;9.27;2.45;;;;;;;;;;5055722;28;20033;-64
2021/10/25 02:15:02;;;;;;;3.03;2.15;;;;;;;;;;5062361;28;20108;-66
2021/10/25 02:17:29;;;;;;;4.00;2.45;;;;;;;;;;5042724;28;20036;-63
2021/10/25 02:19:55;;;;;;;5.97;3.00;;;;;;;;;;5058071;28;20098;-66
2021/10/25 02:22:21;;;;;;;30.05;3.33;;;;;;;;;;5061174;28;20061;-64
2021/10/25 02:24:47;;;;;;;16.92;3.42;;;;;;;;;;5045766;28;20114;-64
2021/10/25 02:27:14;;;;;;;20.92;3.13;;;;;;;;;;5057940;28;20033;-65
2021/10/25 02:29:40;;;;;;;21.55;3.08;;;;;;;;;;5063772;28;20032;-66
2021/10/25 02:32:07;;;;;;;19.58;2.92;;;;;;;;;;5041309;28;20387;-65
2021/10/25 02:34:34;;;;;;;9.43;3.42;;;;;;;;;;5063153;28;20025;-64
2021/10/25 02:37:00;;;;;;;13.82;3.35;;;;;;;;;;5058356;28;20028;-64
2021/10/25 02:39:30;;;;;;;23.30;3.30;;;;;;;;;;5063799;28;20100;-65
2021/10/25 02:41:57;;;;;;;12.52;2.95;;;;;;;;;;5060737;28;20475;-64
2021/10/25 02:44:24;;;;;;;11.38;2.30;;;;;;;;;;5063834;28;20021;-64
2021/10/25 02:46:51;;;;;;;12.02;2.70;;;;;;;;;;5065167;28;20025;-66
2021/10/25 02:49:18;;;;;;;8.63;2.80;;;;;;;;;;5046468;28;20116;-65
2021/10/25 02:51:44;;;;;;;11.13;2.88;;;;;;;;;;5064637;28;20017;-64
2021/10/25 02:54:10;;;;;;;12.43;2.65;;;;;;;;;;5068143;28;20325;-65
2021/10/25 02:56:36;;;;;;;7.55;2.90;;;;;;;;;;5066589;28;20040;-64
2021/10/25 02:59:02;;;;;;;12.27;2.50;;;;;;;;;;5069537;28;20492;-66
2021/10/25 03:01:28;;;;;;;13.68;3.10;;;;;;;;;;5065517;28;20013;-64
2021/10/25 03:03:54;;;;;;;8.95;2.92;;;;;;;;;;5064458;28;20024;-65
2021/10/25 03:06:20;;;;;;;8.35;2.70;;;;;;;;;;5063776;28;20407;-64
2021/10/25 03:08:46;;;;;;;9.38;2.78;;;;;;;;;;5067827;28;20033;-64
2021/10/25 03:11:12;;;;;;;8.10;2.58;;;;;;;;;;5048587;28;20020;-64
2021/10/25 03:13:38;;;;;;;6.30;2.13;;;;;;;;;;5063497;28;20025;-65
2021/10/25 03:16:05;;;;;;;7.03;2.20;;;;;;;;;;5064237;28;20025;-66
2021/10/25 03:18:31;;;;;;;7.75;2.50;;;;;;;;;;5066859;28;20017;-65
2021/10/25 03:20:57;;;;;;;9.05;2.47;;;;;;;;;;5046111;28;20025;-66
2021/10/25 03:23:23;;;;;;;12.88;2.40;;;;;;;;;;5066906;28;20020;-65
2021/10/25 03:25:50;;;;;;;4.55;2.33;;;;;;;;;;5066689;28;20504;-66
2021/10/25 03:28:15;;;;;;;9.25;2.38;;;;;;;;;;5066337;28;20080;-65
2021/10/25 03:30:42;;;;;;;10.10;2.42;;;;;;;;;;5061301;28;20506;-64
2021/10/25 03:33:09;;;;;;;4.65;2.45;;;;;;;;;;5067614;28;20443;-66
2021/10/25 03:35:35;;;;;;;5.43;2.45;;;;;;;;;;5065183;28;20032;-66
2021/10/25 03:38:01;;;;;;;8.98;2.50;;;;;;;;;;5061157;28;20405;-65
2021/10/25 03:40:29;;;;;;;6.13;2.50;;;;;;;;;;5063284;28;20028;-65
2021/10/25 03:42:56;;;;;;;7.47;2.25;;;;;;;;;;5065741;28;20013;-65
2021/10/25 03:45:32;;;;;;;4.95;2.50;;;;;;;;;;5063346;28;20020;-65
2021/10/25 03:50:51;;;;;;;6.28;2.42;;;;;;;;;;5035626;28;20097;-64
2021/10/25 03:54:16;;;;;;;8.63;2.15;;;;;;;;;;5043562;28;20017;-64
2021/10/25 03:56:30;;;;;;;5.90;2.28;;;;;;;;;;5048598;28;20031;-64
2021/10/25 04:27:57;;;;;;;3.60;2.30;;;;;;;;;;5064474;28;20048;-66
2021/10/25 04:30:23;;;;;;;5.95;2.40;;;;;;;;;;5065745;28;20032;-65
2021/10/25 04:32:49;;;;;;;3.90;2.38;;;;;;;;;;5062055;28;20426;-64
2021/10/25 04:35:15;;;;;;;5.70;2.10;;;;;;;;;;5063282;28;20100;-64
2021/10/25 04:37:41;;;;;;;5.50;2.30;;;;;;;;;;5063290;28;20100;-64
2021/10/25 04:40:08;;;;;;;3.88;2.22;;;;;;;;;;5047142;28;20032;-64
2021/10/25 04:42:34;;;;;;;4.85;2.00;;;;;;;;;;5047529;28;20020;-64
2021/10/25 04:45:01;;;;;;;3.22;1.83;;;;;;;;;;5062426;28;20025;-64
2021/10/25 04:47:27;;;;;;;10.68;2.38;;;;;;;;;;5065294;28;20052;-64
2021/10/25 04:49:53;;;;;;;3.75;2.10;;;;;;;;;;5061830;28;20789;-65
2021/10/25 04:52:19;;;;;;;2.42;1.85;;;;;;;;;;5063158;28;20071;-64
2021/10/25 04:54:45;;;;;;;4.00;2.45;;;;;;;;;;5044942;28;20040;-65
2021/10/25 04:57:11;;;;;;;4.28;2.00;;;;;;;;;;5064199;28;20013;-64
2021/10/25 04:59:37;;;;;;;12.82;2.17;;;;;;;;;;5067606;28;20032;-63
2021/10/25 05:02:03;;;;;;;2.63;2.08;;;;;;;;;;5062953;28;20031;-66
2021/10/25 05:04:31;;;;;;;5.18;2.10;;;;;;;;;;5046403;28;20525;-63
2021/10/25 05:06:57;;;;;;;2.92;2.20;;;;;;;;;;5047901;28;20025;-65
2021/10/25 05:09:23;;;;;;;4.55;2.30;;;;;;;;;;5063742;28;20033;-64
2021/10/25 05:11:49;;;;;;;2.13;1.92;;;;;;;;;;5061070;28;20028;-64
2021/10/25 05:14:15;;;;;;;2.60;1.80;;;;;;;;;;5061980;28;20457;-65
2021/10/25 05:16:43;;;;;;;3.45;2.05;;;;;;;;;;5061952;28;20021;-64
2021/10/25 05:19:09;;;;;;;4.80;2.00;;;;;;;;;;5064959;28;20024;-65
2021/10/25 05:21:35;;;;;;;6.43;2.28;;;;;;;;;;5063735;28;20380;-65
2021/10/25 05:24:01;;;;;;;3.30;1.90;;;;;;;;;;5062450;28;20020;-66
2021/10/25 05:26:29;;;;;;;2.78;1.80;;;;;;;;;;5046895;28;20463;-65
2021/10/25 05:28:55;;;;;;;3.38;1.90;;;;;;;;;;5064046;28;20071;-66
2021/10/25 05:31:21;;;;;;;6.57;2.13;;;;;;;;;;5042958;28;20017;-64
2021/10/25 05:33:47;;;;;;;3.60;2.10;;;;;;;;;;5063983;28;20146;-64
2021/10/25 05:36:13;;;;;;;3.45;1.95;;;;;;;;;;5063795;28;20104;-64
2021/10/25 05:38:39;;;;;;;5.85;2.30;;;;;;;;;;5038217;28;20036;-63
2021/10/25 05:41:06;;;;;;;6.40;1.95;;;;;;;;;;5065494;28;20028;-65
2021/10/25 05:43:32;;;;;;;8.15;2.30;;;;;;;;;;5066218;28;20016;-65
2021/10/25 05:45:58;;;;;;;15.10;2.55;;;;;;;;;;5043462;28;20484;-65
2021/10/25 05:48:24;;;;;;;11.27;3.08;;;;;;;;;;5064136;28;20044;-65
2021/10/25 05:50:51;;;;;;;10.85;2.50;;;;;;;;;;5064113;28;20033;-66
2021/10/25 05:53:17;;;;;;;15.07;2.63;;;;;;;;;;5043286;28;20387;-65
2021/10/25 05:55:46;;;;;;;13.57;1.98;;;;;;;;;;5062842;28;20017;-65
2021/10/25 05:58:22;;;;;;;6.30;2.10;;;;;;;;;;5064326;28;20020;-67
2021/10/25 06:00:54;;;;;;;5.43;2.05;;;;;;;;;;5038860;28;20144;-66
2021/10/25 06:03:23;;;;;;;3.33;2.00;;;;;;;;;;5064832;28;20062;-64
2021/10/25 06:05:49;;;;;;;11.10;2.45;;;;;;;;;;5059436;28;20491;-65
2021/10/25 06:08:16;;;;;;;8.57;2.40;;;;;;;;;;5064021;28;20112;-64
2021/10/25 06:10:42;;;;;;;12.90;2.20;;;;;;;;;;5062005;28;20412;-65
2021/10/25 06:13:11;;;;;;;10.90;2.42;;;;;;;;;;5061892;28;20092;-65
2021/10/25 06:15:42;;;;;;;6.35;2.45;;;;;;;;;;5063819;28;20098;-66
2021/10/25 06:18:08;;;;;;;9.88;2.67;;;;;;;;;;5043447;28;20325;-64
2021/10/25 06:20:37;;;;;;;22.05;2.92;;;;;;;;;;5046830;28;20051;-65
2021/10/25 06:23:12;;;;;;;13.23;2.67;;;;;;;;;;5067525;28;20119;-65
2021/10/25 06:25:39;;;;;;;32.00;2.72;;;;;;;;;;5064289;28;20502;-63
2021/10/25 06:28:06;;;;;;;14.15;2.45;;;;;;;;;;5062639;28;20036;-62
2021/10/25 06:30:33;;;;;;;15.32;3.45;;;;;;;;;;5061833;28;20456;-66
2021/10/25 06:33:02;;;;;;;24.10;4.60;;;;;;;;;;5064121;28;20021;-67
2021/10/25 06:35:28;;;;;;;14.88;4.50;;;;;;;;;;5042587;28;20025;-67
2021/10/25 06:38:06;;;;;;;23.65;5.05;;;;;;;;;;5045757;28;20099;-70
2021/10/25 06:40:32;;;;;;;23.30;5.50;;;;;;;;;;5050594;28;20024;-71
2021/10/25 06:42:58;;;;;;;32.58;6.45;;;;;;;;;;5064403;28;20479;-67
2021/10/25 06:45:25;;;;;;;37.45;5.78;;;;;;;;;;5047096;28;20025;-67
2021/10/25 06:47:51;;;;;;;44.92;6.07;;;;;;;;;;5064796;28;20025;-67
2021/10/25 06:50:18;;;;;;;26.92;5.47;;;;;;;;;;5062933;28;20042;-67
2021/10/25 06:52:44;;;;;;;18.83;4.95;;;;;;;;;;5064048;28;20017;-67
2021/10/25 06:55:11;;;;;;;16.75;5.53;;;;;;;;;;5063676;28;20028;-67
2021/10/25 06:57:37;;;;;;;17.95;5.35;;;;;;;;;;5061178;28;20024;-67
2021/10/25 07:00:07;;;;;;;30.40;5.13;;;;;;;;;;5063769;28;20365;-67
2021/10/25 07:02:33;;;;;;;17.17;4.63;;;;;;;;;;5065974;28;20021;-67
2021/10/25 07:04:59;;;;;;;10.85;4.60;;;;;;;;;;5065929;28;20017;-67
2021/10/25 07:07:27;;;;;;;12.20;4.85;;;;;;;;;;5046279;28;20361;-67
2021/10/25 07:09:55;;;;;;;11.57;4.47;;;;;;;;;;5069772;28;20090;-66
2021/10/25 07:12:21;;;;;;;5.70;4.22;;;;;;;;;;5067084;28;20069;-70
2021/10/25 07:14:52;;;;;;;9.30;4.22;;;;;;;;;;5069448;28;20368;-68
2021/10/25 07:22:34;;;;;;;4.47;3.72;;;;;;;;;;5061936;28;20043;-68
2021/10/25 08:05:48;;;;;;;7.13;5.38;;;;;;;;;;5062315;28;20025;-67
2021/10/25 08:09:01;;;;;;;7.53;5.70;;;;;;;;;;5065293;28;20017;-67
2021/10/25 08:11:06;;;;;;;6.28;5.65;;;;;;;;;;5057952;28;20083;-68
2021/10/25 08:13:39;;;;;;;7.55;5.43;;;;;;;;;;5060441;28;20040;-67
2021/10/25 08:21:16;;;;;;;7.18;5.82;;;;;;;;;;5063867;28;20098;-67
2021/10/25 08:23:42;;;;;;;8.85;5.95;;;;;;;;;;5062142;28;20106;-67
2021/10/25 08:26:09;;;;;;;6.13;5.53;;;;;;;;;;5067454;28;20035;-68
2021/10/25 08:28:35;;;;;;;6.07;5.47;;;;;;;;;;5067603;28;20032;-67
2021/10/25 08:31:01;;;;;;;7.38;5.10;;;;;;;;;;5061216;28;20078;-67
2021/10/25 08:36:13;;;;;;;8.80;5.47;;;;;;;;;;5057651;28;20129;-67
2021/10/25 08:41:24;;;;;;;7.82;4.55;;;;;;;;;;5061184;28;20036;-66
2021/10/25 08:43:52;;;;;;;5.22;4.70;;;;;;;;;;5062389;28;20016;-67
2021/10/25 08:46:20;;;;;;;5.82;4.60;;;;;;;;;;5058181;28;20060;-67
2021/10/25 08:48:47;;;;;;;9.05;4.32;;;;;;;;;;5063718;28;20380;-68
2021/10/25 08:51:14;;;;;;;6.68;4.28;;;;;;;;;;5066842;28;20087;-67
2021/10/25 08:53:40;;;;;;;5.82;4.10;;;;;;;;;;5064451;28;20017;-68
2021/10/25 08:56:06;;;;;;;5.57;4.43;;;;;;;;;;5059309;28;20368;-68
2021/10/25 08:58:36;;;;;;;5.25;4.10;;;;;;;;;;5064456;28;20032;-68
2021/10/25 09:01:02;;;;;;;7.70;4.30;;;;;;;;;;5043670;28;20027;-67
2021/10/25 09:03:28;;;;;;;9.48;4.22;;;;;;;;;;5047275;28;20021;-67
2021/10/25 09:05:56;;;;;;;7.15;4.13;;;;;;;;;;5058747;28;20444;-67
2021/10/25 09:08:22;;;;;;;6.63;4.38;;;;;;;;;;5062824;28;20017;-67
2021/10/25 09:10:48;;;;;;;9.25;4.40;;;;;;;;;;5069467;28;20029;-67
2021/10/25 09:13:18;;;;;;;8.57;5.40;;;;;;;;;;5063196;28;20079;-67
2021/10/25 09:15:46;;;;;;;7.18;4.50;;;;;;;;;;5064305;28;20107;-67
2021/10/25 09:18:13;;;;;;;7.43;5.18;;;;;;;;;;5061323;28;20012;-67
2021/10/25 09:20:42;;;;;;;9.32;5.43;;;;;;;;;;5063660;28;20033;-67
2021/10/25 09:23:09;;;;;;;8.50;5.43;;;;;;;;;;5038190;28;20033;-67
2021/10/25 09:25:39;;;;;;;9.93;5.97;;;;;;;;;;5060288;28;20025;-66
2021/10/25 09:28:17;;;;;;;16.30;6.90;;;;;;;;;;5060249;28;20073;-67
2021/10/25 09:30:50;;;;;;;22.23;6.70;;;;;;;;;;5046564;28;20029;-66
2021/10/25 09:33:22;;;;;;;17.13;6.40;;;;;;;;;;5061915;28;20136;-66
2021/10/25 09:35:54;;;;;;;11.30;6.38;;;;;;;;;;5061355;28;20040;-67
2021/10/25 09:38:25;;;;;;;12.73;6.38;;;;;;;;;;5065989;28;20012;-67
2021/10/25 09:46:22;;;;;;;9.52;5.80;;;;;;;;;;5061181;28;20027;-66
2021/10/25 09:49:03;;;;;;;12.10;5.95;;;;;;;;;;5058139;28;20071;-67
2021/10/25 09:51:29;;;;;;;7.53;6.40;;;;;;;;;;5055619;28;20021;-66
2021/10/25 09:53:59;;;;;;;10.68;5.90;;;;;;;;;;5041209;28;20029;-67
2021/10/25 09:56:33;;;;;;;8.30;6.03;;;;;;;;;;5062102;28;20066;-66
2021/10/25 10:01:36;;;;;;;6.63;5.88;;;;;;;;;;5055681;28;20020;-67
2021/10/25 10:04:02;;;;;;;7.20;5.82;;;;;;;;;;5065477;28;20086;-66
2021/10/25 10:06:28;;;;;;;7.88;6.43;;;;;;;;;;5059947;28;20020;-66
2021/10/25 10:08:54;;;;;;;7.70;6.68;;;;;;;;;;5061209;28;20055;-67
2021/10/25 10:11:21;;;;;;;7.07;6.38;;;;;;;;;;5062271;28;20016;-66
2021/10/25 10:13:47;;;;;;;7.63;6.35;;;;;;;;;;5060528;28;20495;-66
2021/10/25 10:16:14;;;;;;;7.20;6.47;;;;;;;;;;5055778;28;20021;-66
2021/10/25 10:18:42;;;;;;;7.43;6.15;;;;;;;;;;5060722;28;20016;-66
2021/10/25 10:21:09;;;;;;;7.05;6.18;;;;;;;;;;5060161;28;21346;-66
2021/10/25 10:23:37;;;;;;;8.30;6.30;;;;;;;;;;5041853;28;20025;-66
2021/10/25 10:26:05;;;;;;;9.40;6.78;;;;;;;;;;5043663;28;20012;-66
2021/10/25 10:28:42;;;;;;;14.45;6.57;;;;;;;;;;5065550;28;20511;-66
2021/10/25 10:31:08;;;;;;;7.97;6.55;;;;;;;;;;5041057;28;20024;-67
2021/10/25 10:33:54;;;;;;;7.53;6.40;;;;;;;;;;5047407;28;20047;-67
2021/10/25 10:36:23;;;;;;;8.73;6.72;;;;;;;;;;5065945;28;20039;-66
2021/10/25 10:38:54;;;;;;;9.02;6.97;;;;;;;;;;5060786;28;20047;-67
2021/10/25 10:41:23;;;;;;;8.55;6.15;;;;;;;;;;5059876;28;20052;-66
2021/10/25 10:44:02;;;;;;;8.38;6.13;;;;;;;;;;5062786;28;20021;-66
2021/10/25 10:46:39;;;;;;;7.75;6.53;;;;;;;;;;5058605;28;20028;-66
2021/10/25 10:49:05;;;;;;;7.68;6.43;;;;;;;;;;5041065;28;20060;-68
2021/10/25 10:51:35;;;;;;;11.95;6.47;;;;;;;;;;5061288;28;20051;-68
2021/10/25 10:54:11;;;;;;;11.48;6.15;;;;;;;;;;5045990;28;20021;-68
2021/10/25 10:56:54;;;;;;;11.25;6.50;;;;;;;;;;5070145;28;20028;-69
2021/10/25 11:02:19;;;;;;;18.23;7.47;;;;;;;;;;5046328;28;20441;-68
2021/10/25 11:04:45;;;;;;;14.20;7.25;;;;;;;;;;5058222;28;20013;-69
2021/10/25 11:07:11;;;;;;;12.15;6.63;;;;;;;;;;5063011;28;20048;-69
2021/10/25 11:09:37;;;;;;;9.70;6.63;;;;;;;;;;5063990;28;20068;-69
2021/10/25 11:12:09;;;;;;;13.73;7.40;;;;;;;;;;5064248;28;20086;-70
2021/10/25 11:14:37;;;;;;;9.00;7.07;;;;;;;;;;5060336;28;20195;-68
2021/10/25 11:17:24;;;;;;;10.30;7.22;;;;;;;;;;5062162;28;20009;-69
2021/10/25 11:19:51;;;;;;;10.65;7.50;;;;;;;;;;5046701;28;20021;-68
2021/10/25 11:22:31;;;;;;;11.88;7.70;;;;;;;;;;5064072;28;20334;-68
2021/10/25 11:24:58;;;;;;;10.02;7.80;;;;;;;;;;5058611;28;20025;-68
2021/10/25 11:27:31;;;;;;;13.05;8.82;;;;;;;;;;5070375;28;20126;-70
2021/10/25 11:30:24;;;;;;;11.07;8.25;;;;;;;;;;5061354;28;20115;-71
2021/10/25 11:32:51;;;;;;;10.85;7.97;;;;;;;;;;5058264;28;20068;-70
2021/10/25 11:35:18;;;;;;;14.50;8.40;;;;;;;;;;5058654;28;20059;-70
2021/10/25 11:37:51;;;;;;;13.20;8.98;;;;;;;;;;5046032;28;20017;-69
2021/10/25 11:40:24;;;;;;;16.48;9.50;;;;;;;;;;5060573;28;20021;-69
2021/10/25 11:42:49;;;;;;;;;;;;;;;;;;5047101;28;20020;-70
2021/10/25 11:45:25;;;;;;;15.25;10.35;;;;;;;;;;5049890;28;20352;-69
2021/10/25 11:47:53;;;;;;;14.57;11.05;;;;;;;;;;5042929;28;20016;-70
2021/10/25 11:50:20;;;;;;;18.40;11.88;;;;;;;;;;5055733;28;20033;-69
2021/10/25 11:52:48;;;;;;;20.27;11.40;;;;;;;;;;5051007;28;20021;-69
2021/10/25 11:55:19;;;;;;;17.52;10.77;;;;;;;;;;5062093;28;20017;-68
2021/10/25 11:57:49;;;;;;;18.42;10.98;;;;;;;;;;5043820;28;20024;-68
2021/10/25 12:00:16;;;;;;;17.85;10.18;;;;;;;;;;5051610;28;20028;-68
2021/10/25 12:02:42;;;;;;;36.95;10.10;;;;;;;;;;5047589;28;20037;-66
2021/10/25 12:05:08;;;;;;;19.20;10.20;;;;;;;;;;5065867;28;20484;-67
2021/10/25 12:07:45;;;;;;;20.40;10.20;;;;;;;;;;5063837;28;20098;-66
2021/10/25 12:10:11;;;;;;;18.55;9.27;;;;;;;;;;5055184;28;20044;-66
2021/10/25 12:12:37;;;;;;;17.25;9.45;;;;;;;;;;5067587;28;20469;-66
2021/10/25 12:15:04;;;;;;;14.15;9.80;;;;;;;;;;5063368;28;20032;-66
2021/10/25 12:17:33;;;;;;;13.85;9.35;;;;;;;;;;5062293;28;20045;-65
2021/10/25 12:20:00;;;;;;;16.58;9.48;;;;;;;;;;5061602;28;20017;-66
2021/10/25 12:22:26;;;;;;;15.18;9.65;;;;;;;;;;5067677;28;20559;-66
2021/10/25 12:24:53;;;;;;;16.42;10.45;;;;;;;;;;5062403;28;20094;-65
2021/10/25 12:27:39;;;;;;;26.77;11.88;;;;;;;;;;5068995;28;20115;-66
2021/10/25 12:30:06;;;;;;;15.43;9.95;;;;;;;;;;5065195;28;20044;-66
2021/10/25 12:32:33;;;;;;;16.25;10.35;;;;;;;;;;5062073;28;20101;-65
2021/10/25 12:35:00;;;;;;;19.73;11.35;;;;;;;;;;5063594;28;20059;-66
2021/10/25 12:37:31;;;;;;;21.23;11.68;;;;;;;;;;5064161;28;20033;-67
2021/10/25 12:39:58;;;;;;;18.08;12.20;;;;;;;;;;5060315;28;20595;-65
2021/10/25 12:42:25;;;;;;;19.42;12.50;;;;;;;;;;5063401;28;20047;-66
2021/10/25 12:44:55;;;;;;;23.58;13.13;;;;;;;;;;5057070;28;20029;-67
2021/10/25 12:47:26;;;;;;;25.40;13.77;;;;;;;;;;5060319;28;20013;-66
2021/10/25 12:49:57;;;;;;;22.02;13.38;;;;;;;;;;5055710;28;20029;-66
2021/10/25 12:52:28;;;;;;;25.30;14.32;;;;;;;;;;5062108;28;20021;-66
2021/10/25 12:55:04;;;;;;;20.30;13.95;;;;;;;;;;5059539;28;20019;-67
2021/10/25 12:57:31;;;;;;;21.48;12.85;;;;;;;;;;5067153;28;20043;-64
2021/10/25 13:00:04;;;;;;;21.65;13.50;;;;;;;;;;5062913;28;20029;-66
2021/10/25 13:02:30;;;;;;;19.25;12.38;;;;;;;;;;5062239;28;20461;-66
2021/10/25 13:05:07;;;;;;;19.27;13.15;;;;;;;;;;5059488;28;20544;-64
2021/10/25 13:07:33;;;;;;;30.77;17.20;;;;;;;;;;5058764;28;20093;-65
2021/10/25 13:09:59;;;;;;;32.42;19.20;;;;;;;;;;5045126;28;20400;-66
2021/10/25 13:12:25;;;;;;;46.47;20.95;;;;;;;;;;5061834;28;20013;-65
2021/10/25 13:14:51;;;;;;;42.95;22.77;;;;;;;;;;5059991;28;20103;-66
2021/10/25 13:17:18;;;;;;;49.85;23.60;;;;;;;;;;5063762;28;20138;-65
2021/10/25 13:19:45;;;;;;;44.10;23.67;;;;;;;;;;5042687;28;20035;-67
2021/10/25 13:22:11;;;;;;;50.90;25.85;;;;;;;;;;5059953;28;20013;-65
2021/10/25 13:24:37;;;;;;;52.35;26.95;;;;;;;;;;5059963;28;20055;-66
2021/10/25 13:27:05;;;;;;;52.22;26.77;;;;;;;;;;5063131;28;20390;-65
2021/10/25 13:29:31;;;;;;;55.63;27.48;;;;;;;;;;5060675;28;20048;-66
2021/10/25 13:31:57;;;;;;;52.08;28.27;;;;;;;;;;5060521;28;20123;-64
2021/10/25 13:34:23;;;;;;;61.55;29.40;;;;;;;;;;5061942;28;20021;-66
2021/10/25 13:36:50;;;;;;;59.50;29.25;;;;;;;;;;5045176;28;20025;-65
2021/10/25 13:39:18;;;;;;;59.03;29.08;;;;;;;;;;5060282;28;20097;-64
2021/10/25 13:41:44;;;;;;;51.50;27.50;;;;;;;;;;5060678;28;20029;-65
2021/10/25 13:44:10;;;;;;;51.92;27.65;;;;;;;;;;5061827;28;20021;-66
2021/10/25 13:46:36;;;;;;;50.58;26.58;;;;;;;;;;5058164;28;20032;-63
2021/10/25 13:49:04;;;;;;;48.40;25.85;;;;;;;;;;5065175;28;20107;-63
2021/10/25 13:51:31;;;;;;;47.95;25.42;;;;;;;;;;5058421;28;20104;-63
2021/10/25 13:53:57;;;;;;;48.80;25.02;;;;;;;;;;5041816;28;20478;-64
2021/10/25 13:56:25;;;;;;;44.95;24.40;;;;;;;;;;5058818;28;20024;-64
2021/10/25 13:58:52;;;;;;;44.53;24.52;;;;;;;;;;5060578;28;20025;-64
2021/10/25 14:01:18;;;;;;;50.22;23.05;;;;;;;;;;5060298;28;20506;-64
2021/10/25 14:03:45;;;;;;;39.35;21.90;;;;;;;;;;5063382;28;20058;-65
2021/10/25 14:06:12;;;;;;;42.67;22.40;;;;;;;;;;5060450;28;20032;-64
2021/10/25 14:08:39;;;;;;;38.70;20.15;;;;;;;;;;5056004;28;20035;-63
2021/10/25 14:11:05;;;;;;;37.15;20.33;;;;;;;;;;5056567;28;20380;-64
2021/10/25 14:16:41;;;;;;;31.98;18.98;;;;;;;;;;5061997;28;20674;-63
2021/10/25 14:18:47;;;;;;;37.70;18.90;;;;;;;;;;5042672;28;20090;-64
2021/10/25 14:21:18;;;;;;;33.25;17.63;;;;;;;;;;5060350;28;20029;-64
2021/10/25 14:23:45;;;;;;;31.10;17.08;;;;;;;;;;5054243;28;20031;-63
2021/10/25 14:26:12;;;;;;;26.10;16.75;;;;;;;;;;5062062;28;20421;-63
2021/10/25 14:28:43;;;;;;;29.48;17.50;;;;;;;;;;5058252;28;20507;-63
2021/10/25 14:31:14;;;;;;;27.95;16.42;;;;;;;;;;5041385;28;20052;-63
2021/10/25 14:33:40;;;;;;;31.33;16.15;;;;;;;;;;5057695;28;20017;-63
2021/10/25 14:36:07;;;;;;;29.73;15.07;;;;;;;;;;5062707;28;20048;-64
2021/10/25 14:43:44;;;;;;;36.15;17.20;;;;;;;;;;5066199;28;20089;-64
2021/10/25 14:46:21;;;;;;;35.00;18.10;;;;;;;;;;5065071;28;20025;-64
2021/10/25 14:54:22;;;;;;;31.42;17.38;;;;;;;;;;5067425;28;20043;-63
2021/10/25 14:56:45;;;;;;;34.63;17.77;;;;;;;;;;5058600;28;20484;-64
2021/10/25 14:59:11;;;;;;;30.77;17.45;;;;;;;;;;5065461;28;20032;-64
2021/10/25 15:01:36;;;;;;;30.95;16.83;;;;;;;;;;5060561;28;20025;-63
2021/10/25 15:04:06;;;;;;;30.55;16.42;;;;;;;;;;5064279;28;20357;-64
2021/10/25 15:06:36;;;;;;;31.80;15.80;;;;;;;;;;5068022;28;20021;-65
2021/10/25 15:09:03;;;;;;;26.90;15.80;;;;;;;;;;5062925;28;20275;-66
2021/10/25 15:11:29;;;;;;;28.30;16.45;;;;;;;;;;5066619;28;20059;-64
2021/10/25 15:13:55;;;;;;;29.95;15.68;;;;;;;;;;5064412;28;20028;-64
2021/10/25 15:16:24;;;;;;;27.02;15.32;;;;;;;;;;5065708;28;20078;-64
2021/10/25 15:18:51;;;;;;;23.92;15.35;;;;;;;;;;5059136;28;20017;-64
2021/10/25 15:21:17;;;;;;;28.20;14.38;;;;;;;;;;5066735;28;20025;-64
2021/10/25 15:23:45;;;;;;;21.98;13.45;;;;;;;;;;5065368;28;20376;-64
2021/10/25 15:26:11;;;;;;;26.60;15.10;;;;;;;;;;5047461;28;20036;-63
2021/10/25 15:28:38;;;;;;;19.98;13.35;;;;;;;;;;5061869;28;20061;-65
2021/10/25 15:31:05;;;;;;;24.55;14.13;;;;;;;;;;5064708;28;20485;-63
2021/10/25 15:33:31;;;;;;;23.33;14.52;;;;;;;;;;5062104;28;20464;-63
2021/10/25 15:35:58;;;;;;;20.15;12.50;;;;;;;;;;5060396;28;20025;-63
2021/10/25 15:38:25;;;;;;;19.48;12.25;;;;;;;;;;5057826;28;20108;-64
2021/10/25 15:40:51;;;;;;;20.00;12.35;;;;;;;;;;5036273;28;20078;-64
2021/10/25 15:43:17;;;;;;;18.80;12.63;;;;;;;;;;5068305;28;20020;-64
2021/10/25 15:45:43;;;;;;;19.00;11.23;;;;;;;;;;5056049;28;20025;-65
2021/10/25 15:48:10;;;;;;;19.67;12.57;;;;;;;;;;5058219;28;20021;-63
2021/10/25 15:50:36;;;;;;;17.88;11.15;;;;;;;;;;5061843;28;20619;-64
2021/10/25 15:53:05;;;;;;;20.10;11.57;;;;;;;;;;5051655;28;20107;-64
2021/10/25 15:55:31;;;;;;;17.95;11.23;;;;;;;;;;5070096;28;20388;-64
2021/10/25 15:57:58;;;;;;;18.13;10.95;;;;;;;;;;5063962;28;20172;-64
2021/10/25 16:00:25;;;;;;;16.40;11.00;;;;;;;;;;5063593;28;20009;-64
2021/10/25 16:02:51;;;;;;;15.43;10.43;;;;;;;;;;5062764;28;20475;-64
2021/10/25 16:05:17;;;;;;;17.58;9.93;;;;;;;;;;5062996;28;20132;-63
2021/10/25 16:07:43;;;;;;;16.38;10.07;;;;;;;;;;5063347;28;20037;-64
2021/10/25 16:10:11;;;;;;;13.75;9.60;;;;;;;;;;5064472;28;20040;-64
2021/10/25 16:12:37;;;;;;;14.23;9.68;;;;;;;;;;5046020;28;20031;-64
2021/10/25 16:15:04;;;;;;;12.23;9.02;;;;;;;;;;5058364;28;20029;-64
2021/10/25 16:17:30;;;;;;;13.75;8.95;;;;;;;;;;5042462;28;20111;-64
2021/10/25 16:19:59;;;;;;;15.32;9.00;;;;;;;;;;5064629;28;20032;-63
2021/10/25 16:22:25;;;;;;;12.52;8.40;;;;;;;;;;5046198;28;20028;-64
2021/10/25 16:24:52;;;;;;;11.82;8.70;;;;;;;;;;5062150;28;20028;-65
2021/10/25 16:27:18;;;;;;;16.67;9.07;;;;;;;;;;5060872;28;20440;-64
2021/10/25 16:29:44;;;;;;;13.77;8.38;;;;;;;;;;5061922;28;20044;-65